createdAt,value
2022-11-30T00:00:32.357Z,18.55
2022-11-30T00:03:00.395Z,18.56
2022-11-30T00:05:29.746Z,18.57
2022-11-30T00:07:57.672Z,18.57
2022-11-30T00:10:25.581Z,18.60
2022-11-30T00:12:54.931Z,18.63
2022-11-30T00:15:22.787Z,18.64
2022-11-30T00:17:50.649Z,18.63
2022-11-30T00:20:18.879Z,18.63
2022-11-30T00:22:48.124Z,18.62
2022-11-30T00:25:16.074Z,18.62
2022-11-30T00:27:43.953Z,18.60
2022-11-30T00:30:13.051Z,18.60
2022-11-30T00:32:40.921Z,18.61
2022-11-30T00:35:09.019Z,18.62
2022-11-30T00:37:37.001Z,18.62
2022-11-30T00:40:07.715Z,18.62
2022-11-30T00:42:35.624Z,18.64
2022-11-30T00:45:03.477Z,18.64
2022-11-30T00:47:31.400Z,18.63
2022-11-30T00:49:59.292Z,18.62
2022-11-30T00:52:27.182Z,18.62
2022-11-30T00:54:55.105Z,18.63
2022-11-30T00:57:24.398Z,18.62
2022-11-30T00:59:52.294Z,18.64
2022-11-30T01:02:20.389Z,18.63
2022-11-30T01:04:48.603Z,18.62
2022-11-30T01:07:16.885Z,18.58
2022-11-30T01:09:44.878Z,18.57
2022-11-30T01:12:12.735Z,18.54
2022-11-30T01:14:42.047Z,18.52
2022-11-30T01:17:09.895Z,18.53
2022-11-30T01:19:37.755Z,18.51
2022-11-30T01:22:05.669Z,18.51
2022-11-30T01:24:33.806Z,18.51
2022-11-30T01:27:01.663Z,18.51
2022-11-30T01:29:29.533Z,18.52
2022-11-30T01:31:58.850Z,18.52
2022-11-30T01:34:26.743Z,18.51
2022-11-30T01:36:54.637Z,18.52
2022-11-30T01:39:22.554Z,18.55
2022-11-30T01:41:50.441Z,18.57
2022-11-30T01:44:50.869Z,18.57
2022-11-30T01:47:21.310Z,18.60
2022-11-30T01:49:50.297Z,18.59
2022-11-30T01:52:19.043Z,18.60
2022-11-30T01:54:48.411Z,18.60
2022-11-30T01:57:20.007Z,18.60
2022-11-30T01:59:47.973Z,18.62
2022-11-30T02:02:15.910Z,18.62
2022-11-30T02:04:45.497Z,18.62
2022-11-30T02:07:13.734Z,18.61
2022-11-30T02:09:43.500Z,18.62
2022-11-30T02:12:15.558Z,18.63
2022-11-30T02:14:45.171Z,18.64
2022-11-30T02:17:15.956Z,18.64
2022-11-30T02:20:03.567Z,18.62
2022-11-30T02:22:39.859Z,18.62
2022-11-30T02:25:10.100Z,18.64
2022-11-30T02:27:54.935Z,18.65
2022-11-30T02:30:24.389Z,18.66
2022-11-30T02:32:54.114Z,18.68
2022-11-30T02:35:24.009Z,18.68
2022-11-30T02:37:52.058Z,18.67
2022-11-30T02:40:20.367Z,18.67
2022-11-30T02:42:48.265Z,18.70
2022-11-30T02:45:16.331Z,18.68
2022-11-30T02:47:48.143Z,18.67
2022-11-30T02:50:16.907Z,18.65
2022-11-30T02:52:44.802Z,18.65
2022-11-30T02:55:13.140Z,18.65
2022-11-30T02:57:41.026Z,18.67
2022-11-30T03:00:10.812Z,18.66
2022-11-30T03:02:38.855Z,18.66
2022-11-30T03:05:08.389Z,18.65
2022-11-30T03:07:36.415Z,18.64
2022-11-30T03:10:08.685Z,18.64
2022-11-30T03:12:36.586Z,18.62
2022-11-30T03:15:04.744Z,18.60
2022-11-30T03:17:32.678Z,18.58
2022-11-30T03:20:00.585Z,18.58
2022-11-30T03:22:29.818Z,18.58
2022-11-30T03:24:57.739Z,18.57
2022-11-30T03:27:25.660Z,18.57
2022-11-30T03:29:53.608Z,18.57
2022-11-30T03:32:21.727Z,18.56
2022-11-30T03:34:49.769Z,18.55
2022-11-30T03:37:17.890Z,18.54
2022-11-30T03:39:47.224Z,18.53
2022-11-30T03:42:15.133Z,18.53
2022-11-30T03:44:43.062Z,18.52
2022-11-30T03:47:10.936Z,18.50
2022-11-30T03:49:38.798Z,18.51
2022-11-30T03:52:06.864Z,18.51
2022-11-30T03:54:34.822Z,18.49
2022-11-30T03:57:04.155Z,18.49
2022-11-30T03:59:32.096Z,18.50
2022-11-30T04:02:00.003Z,18.50
2022-11-30T04:04:27.950Z,18.49
2022-11-30T04:06:55.875Z,18.49
2022-11-30T04:09:23.994Z,18.50
2022-11-30T04:11:51.912Z,18.50
2022-11-30T04:14:21.164Z,18.53
2022-11-30T04:16:49.088Z,18.53
2022-11-30T04:19:17.012Z,18.54
2022-11-30T04:21:44.873Z,18.54
2022-11-30T04:24:12.708Z,18.53
2022-11-30T04:26:40.649Z,18.53
2022-11-30T04:29:08.603Z,18.54
2022-11-30T04:31:37.931Z,18.54
2022-11-30T04:34:05.892Z,18.56
2022-11-30T04:36:33.851Z,18.55
2022-11-30T04:39:01.728Z,18.55
2022-11-30T04:41:29.616Z,18.57
2022-11-30T04:43:57.542Z,18.57
2022-11-30T04:46:25.464Z,18.57
2022-11-30T04:48:54.773Z,18.57
2022-11-30T04:51:22.682Z,18.56
2022-11-30T04:53:50.560Z,18.55
2022-11-30T04:56:18.478Z,18.54
2022-11-30T04:58:46.347Z,18.56
2022-11-30T05:01:14.311Z,18.56
2022-11-30T05:03:42.188Z,18.56
2022-11-30T05:06:11.444Z,18.57
2022-11-30T05:08:39.341Z,18.57
2022-11-30T05:11:07.220Z,18.55
2022-11-30T05:13:35.157Z,18.52
2022-11-30T05:16:03.034Z,18.48
2022-11-30T05:18:31.747Z,18.48
2022-11-30T05:20:59.616Z,18.48
2022-11-30T05:23:28.955Z,18.49
2022-11-30T05:25:56.815Z,18.49
2022-11-30T05:28:24.688Z,18.51
2022-11-30T05:30:52.591Z,18.52
2022-11-30T05:33:20.452Z,18.53
2022-11-30T05:35:48.292Z,18.54
2022-11-30T05:38:16.219Z,18.55
2022-11-30T05:40:45.565Z,18.53
2022-11-30T05:43:13.686Z,18.53
2022-11-30T05:45:41.582Z,18.53
2022-11-30T05:48:09.745Z,18.52
2022-11-30T05:50:37.637Z,18.53
2022-11-30T05:53:05.557Z,18.53
2022-11-30T05:55:33.487Z,18.54
2022-11-30T05:58:02.703Z,18.55
2022-11-30T06:00:30.624Z,18.60
2022-11-30T06:02:58.753Z,18.63
2022-11-30T06:05:26.909Z,18.66
2022-11-30T06:07:54.850Z,18.65
2022-11-30T06:10:25.241Z,18.62
2022-11-30T06:12:53.072Z,18.59
2022-11-30T06:15:22.533Z,18.60
2022-11-30T06:17:50.412Z,18.61
2022-11-30T06:20:18.362Z,18.58
2022-11-30T06:22:47.578Z,18.58
2022-11-30T06:25:15.802Z,18.56
2022-11-30T06:27:44.025Z,18.56
2022-11-30T06:30:13.246Z,18.57
2022-11-30T06:32:45.347Z,18.55
2022-11-30T06:35:13.350Z,18.54
2022-11-30T06:37:41.310Z,18.54
2022-11-30T06:40:10.276Z,18.54
2022-11-30T06:42:38.173Z,18.55
2022-11-30T06:45:07.742Z,18.56
2022-11-30T06:47:35.644Z,18.55
2022-11-30T06:50:05.466Z,18.53
2022-11-30T06:52:33.403Z,18.52
2022-11-30T06:55:01.538Z,18.50
2022-11-30T06:57:29.504Z,18.49
2022-11-30T06:59:57.631Z,18.49
2022-11-30T07:02:25.455Z,18.48
2022-11-30T07:04:53.385Z,18.47
2022-11-30T07:07:22.816Z,18.47
2022-11-30T07:09:51.050Z,18.47
2022-11-30T07:12:18.992Z,18.48
2022-11-30T07:14:47.231Z,18.48
2022-11-30T07:17:15.408Z,18.49
2022-11-30T07:19:43.280Z,18.50
2022-11-30T07:22:11.194Z,18.50
2022-11-30T07:24:57.958Z,18.52
2022-11-30T07:27:25.936Z,18.53
2022-11-30T07:29:53.797Z,18.60
2022-11-30T07:32:21.660Z,18.63
2022-11-30T07:34:49.754Z,18.67
2022-11-30T07:37:17.894Z,18.65
2022-11-30T07:39:47.133Z,18.66
2022-11-30T07:42:15.061Z,18.67
2022-11-30T07:44:42.983Z,18.67
2022-11-30T07:47:10.846Z,18.68
2022-11-30T07:49:39.805Z,18.66
2022-11-30T07:52:08.325Z,18.65
2022-11-30T07:54:36.239Z,18.64
2022-11-30T07:57:05.567Z,18.63
2022-11-30T07:59:33.528Z,18.64
2022-11-30T08:02:01.761Z,18.64
2022-11-30T08:04:29.827Z,18.63
2022-11-30T08:06:57.849Z,18.62
2022-11-30T08:09:25.871Z,18.62
2022-11-30T08:11:53.754Z,18.60
2022-11-30T08:14:23.066Z,18.60
2022-11-30T08:16:51.778Z,18.62
2022-11-30T08:19:19.854Z,18.61
2022-11-30T08:21:47.924Z,18.60
2022-11-30T08:24:16.015Z,18.60
2022-11-30T08:26:43.985Z,18.60
2022-11-30T08:29:12.223Z,18.62
2022-11-30T08:31:41.667Z,18.60
2022-11-30T08:34:10.792Z,18.58
2022-11-30T08:36:38.794Z,18.60
2022-11-30T08:39:07.124Z,18.60
2022-11-30T08:41:35.842Z,18.61
2022-11-30T08:44:03.778Z,18.60
2022-11-30T08:52:18.171Z,18.59
2022-11-30T08:54:47.662Z,18.60
2022-11-30T08:57:15.980Z,18.60
2022-11-30T08:59:43.904Z,18.61
2022-11-30T09:02:12.363Z,18.61
2022-11-30T09:04:41.806Z,18.61
2022-11-30T09:07:09.824Z,18.61
2022-11-30T09:09:37.949Z,18.62
2022-11-30T09:12:06.216Z,18.62
2022-11-30T09:14:34.101Z,18.60
2022-11-30T09:17:02.057Z,18.60
2022-11-30T09:19:32.689Z,18.61
2022-11-30T09:22:01.982Z,18.61
2022-11-30T09:24:29.976Z,18.62
2022-11-30T09:26:57.953Z,18.62
2022-11-30T09:29:25.855Z,18.60
2022-11-30T09:31:53.816Z,18.60
2022-11-30T09:34:21.715Z,18.60
2022-11-30T09:36:49.600Z,18.62
2022-11-30T09:39:18.924Z,18.61
2022-11-30T09:42:13.483Z,18.61
2022-11-30T09:44:47.956Z,18.63
2022-11-30T09:47:27.821Z,18.63
2022-11-30T09:49:59.756Z,18.63
2022-11-30T09:52:29.826Z,18.64
2022-11-30T09:54:59.195Z,18.64
2022-11-30T09:57:28.665Z,18.62
2022-11-30T09:59:57.446Z,18.64
2022-11-30T10:02:28.698Z,18.63
2022-11-30T10:04:56.670Z,18.64
2022-11-30T10:07:37.021Z,18.66
2022-11-30T10:10:30.827Z,18.66
2022-11-30T10:13:00.896Z,18.67
2022-11-30T10:15:33.503Z,18.67
2022-11-30T10:18:05.163Z,18.68
2022-11-30T10:20:43.790Z,18.69
2022-11-30T10:23:20.231Z,18.71
2022-11-30T10:25:52.763Z,18.71
2022-11-30T10:28:46.671Z,18.71
2022-11-30T10:31:13.083Z,18.71
2022-11-30T10:33:43.430Z,18.71
2022-11-30T10:36:13.267Z,18.71
2022-11-30T10:38:42.395Z,18.70
2022-11-30T10:41:12.823Z,18.71
2022-11-30T10:43:43.609Z,18.71
2022-11-30T10:46:17.158Z,18.72
2022-11-30T10:48:47.249Z,18.72
2022-11-30T10:51:15.193Z,18.71
2022-11-30T10:53:43.094Z,18.72
2022-11-30T10:56:12.884Z,18.74
2022-11-30T10:58:42.252Z,18.74
2022-11-30T11:01:11.186Z,18.73
2022-11-30T11:03:39.259Z,18.73
2022-11-30T11:06:13.585Z,18.74
2022-11-30T11:08:45.413Z,18.73
2022-11-30T11:11:30.196Z,18.73
2022-11-30T11:14:10.743Z,18.73
2022-11-30T11:16:50.584Z,18.71
2022-11-30T11:19:25.099Z,18.72
2022-11-30T11:21:52.966Z,18.71
2022-11-30T11:24:21.364Z,18.71
2022-11-30T11:26:53.662Z,18.71
2022-11-30T11:29:31.262Z,18.72
2022-11-30T11:32:24.798Z,18.72
2022-11-30T11:34:52.778Z,18.71
2022-11-30T11:37:22.711Z,18.70
2022-11-30T11:39:58.770Z,18.69
2022-11-30T11:42:28.351Z,18.70
2022-11-30T11:44:57.198Z,18.68
2022-11-30T11:47:27.659Z,18.67
2022-11-30T11:50:31.663Z,18.68
2022-11-30T11:53:22.800Z,18.69
2022-11-30T11:55:52.395Z,18.68
2022-11-30T11:58:26.077Z,18.69
2022-11-30T12:01:10.611Z,18.70
2022-11-30T12:03:45.202Z,18.70
2022-11-30T12:06:15.062Z,18.69
2022-11-30T12:08:46.074Z,18.69
2022-11-30T12:11:15.704Z,18.70
2022-11-30T12:13:45.893Z,18.71
2022-11-30T12:16:24.382Z,18.75
2022-11-30T12:18:55.098Z,18.77
2022-11-30T12:21:28.006Z,18.78
2022-11-30T12:24:03.983Z,18.81
2022-11-30T12:26:35.873Z,18.83
2022-11-30T12:29:24.963Z,18.87
2022-11-30T12:32:02.820Z,18.90
2022-11-30T12:34:50.184Z,18.94
2022-11-30T12:37:22.052Z,18.99
2022-11-30T12:39:54.410Z,19.03
2022-11-30T12:42:25.111Z,19.06
2022-11-30T12:44:57.248Z,19.10
2022-11-30T12:47:36.893Z,19.14
2022-11-30T12:50:18.935Z,19.14
2022-11-30T12:52:50.197Z,19.16
2022-11-30T12:55:24.085Z,19.16
2022-11-30T12:57:55.181Z,19.17
2022-11-30T13:00:25.258Z,19.18
2022-11-30T13:03:06.832Z,19.17
2022-11-30T13:05:36.603Z,19.19
2022-11-30T13:08:07.119Z,19.19
2022-11-30T13:10:36.423Z,19.21
2022-11-30T13:13:04.555Z,19.23
2022-11-30T13:15:34.589Z,19.26
2022-11-30T13:18:02.573Z,19.28
2022-11-30T13:20:33.150Z,19.30
2022-11-30T13:23:02.384Z,19.30
2022-11-30T13:26:06.177Z,19.29
2022-11-30T13:28:25.722Z,19.30
2022-11-30T13:30:56.803Z,19.31
2022-11-30T13:33:49.479Z,19.32
2022-11-30T13:36:28.867Z,19.32
2022-11-30T13:39:30.248Z,19.33
2022-11-30T13:42:37.714Z,19.33
2022-11-30T13:45:27.497Z,19.33
2022-11-30T13:47:57.184Z,19.33
2022-11-30T13:50:28.475Z,19.34
2022-11-30T13:53:24.745Z,19.33
2022-11-30T13:56:26.199Z,19.34
2022-11-30T13:59:31.282Z,19.34
2022-11-30T14:05:40.734Z,19.34
2022-11-30T14:08:36.871Z,19.31
2022-11-30T14:11:42.518Z,19.30
2022-11-30T14:14:45.474Z,19.29
2022-11-30T14:17:24.313Z,19.29
2022-11-30T14:19:53.348Z,19.29
2022-11-30T14:22:22.614Z,19.26
2022-11-30T14:24:50.483Z,19.28
2022-11-30T14:27:20.060Z,19.26
2022-11-30T14:29:53.142Z,19.25
2022-11-30T14:32:27.270Z,19.23
2022-11-30T14:34:57.174Z,19.22
2022-11-30T14:37:27.508Z,19.21
2022-11-30T14:39:56.671Z,19.22
2022-11-30T14:42:25.921Z,19.21
2022-11-30T14:44:53.928Z,19.23
2022-11-30T14:47:24.970Z,19.22
2022-11-30T14:49:54.028Z,19.23
2022-11-30T14:52:32.275Z,19.23
2022-11-30T14:55:08.995Z,19.23
2022-11-30T14:57:39.915Z,19.24
2022-11-30T15:00:15.653Z,19.24
2022-11-30T15:02:43.811Z,19.25
2022-11-30T15:05:15.442Z,19.26
2022-11-30T15:07:44.997Z,19.28
2022-11-30T15:10:15.799Z,19.28
2022-11-30T15:12:44.769Z,19.28
2022-11-30T15:15:17.743Z,19.29
2022-11-30T15:17:50.836Z,19.29
2022-11-30T15:20:20.894Z,19.31
2022-11-30T15:22:50.259Z,19.31
2022-11-30T15:25:18.107Z,19.30
2022-11-30T15:27:46.046Z,19.31
2022-11-30T15:30:16.340Z,19.33
2022-11-30T15:32:47.918Z,19.33
2022-11-30T15:35:23.138Z,19.35
2022-11-30T15:37:52.455Z,19.36
2022-11-30T15:40:34.710Z,19.37
2022-11-30T15:43:02.733Z,19.35
2022-11-30T15:45:31.487Z,19.34
2022-11-30T15:48:00.183Z,19.33
2022-11-30T15:50:41.188Z,19.33
2022-11-30T15:53:34.065Z,19.33
2022-11-30T15:56:05.141Z,19.32
2022-11-30T15:58:37.032Z,19.31
2022-11-30T16:01:10.101Z,19.30
2022-11-30T16:04:01.559Z,19.28
2022-11-30T16:06:29.886Z,19.28
2022-11-30T16:08:59.243Z,19.28
2022-11-30T16:11:27.103Z,19.28
2022-11-30T16:13:54.981Z,19.27
2022-11-30T16:16:24.902Z,19.27
2022-11-30T16:18:52.848Z,19.26
2022-11-30T16:21:21.045Z,19.25
2022-11-30T16:23:49.139Z,19.24
2022-11-30T16:29:07.093Z,19.25
2022-11-30T16:31:35.255Z,19.26
2022-11-30T16:34:03.241Z,19.23
2022-11-30T16:36:31.127Z,19.22
2022-11-30T16:39:02.106Z,19.23
2022-11-30T16:41:32.883Z,19.24
2022-11-30T16:44:00.781Z,19.22
2022-11-30T16:46:29.369Z,19.22
2022-11-30T16:48:57.345Z,19.21
2022-11-30T16:51:26.372Z,19.21
2022-11-30T16:53:54.287Z,19.21
2022-11-30T16:56:22.188Z,19.21
2022-11-30T16:58:51.564Z,19.20
2022-11-30T17:01:21.819Z,19.19
2022-11-30T17:03:50.771Z,19.19
2022-11-30T17:06:19.600Z,19.18
2022-11-30T17:08:47.705Z,19.19
2022-11-30T17:11:18.110Z,19.20
2022-11-30T17:13:46.181Z,19.17
2022-11-30T17:16:15.602Z,19.18
2022-11-30T17:18:44.390Z,19.18
2022-11-30T17:21:14.686Z,19.18
2022-11-30T17:23:42.729Z,19.18
2022-11-30T17:26:10.766Z,19.20
2022-11-30T17:28:38.659Z,19.19
2022-11-30T17:31:06.681Z,19.18
2022-11-30T17:33:36.178Z,19.17
2022-11-30T17:36:05.442Z,19.17
2022-11-30T17:38:34.448Z,19.17
2022-11-30T17:41:03.911Z,19.17
2022-11-30T17:43:31.863Z,19.16
2022-11-30T17:45:59.879Z,19.16
2022-11-30T17:48:27.805Z,19.16
2022-11-30T17:50:57.168Z,19.16
2022-11-30T17:53:25.071Z,19.16
2022-11-30T17:56:01.848Z,19.15
2022-11-30T17:58:34.127Z,19.15
2022-11-30T18:01:03.459Z,19.17
2022-11-30T18:03:31.571Z,19.17
2022-11-30T18:06:02.543Z,19.17
2022-11-30T18:08:30.527Z,19.17
2022-11-30T18:10:58.501Z,19.16
2022-11-30T18:13:26.738Z,19.15
2022-11-30T18:15:54.687Z,19.15
2022-11-30T18:18:22.621Z,19.14
2022-11-30T18:20:50.833Z,19.13
2022-11-30T18:23:20.128Z,19.14
2022-11-30T18:25:49.656Z,19.15
2022-11-30T18:28:17.571Z,19.15
2022-11-30T18:30:45.515Z,19.14
2022-11-30T18:33:13.422Z,19.13
2022-11-30T18:35:41.338Z,19.13
2022-11-30T18:38:09.227Z,19.12
2022-11-30T18:40:38.527Z,19.13
2022-11-30T18:43:06.598Z,19.13
2022-11-30T18:45:34.724Z,19.14
2022-11-30T18:48:02.693Z,19.13
2022-11-30T18:50:30.605Z,19.14
2022-11-30T18:52:58.524Z,19.14
2022-11-30T18:55:26.744Z,19.13
2022-11-30T18:57:57.024Z,19.12
2022-11-30T19:00:24.961Z,19.15
2022-11-30T19:02:52.809Z,19.19
2022-11-30T19:05:32.609Z,19.20
2022-11-30T19:08:04.834Z,19.21
2022-11-30T19:10:33.656Z,19.23
2022-11-30T19:13:04.038Z,19.27
2022-11-30T19:15:32.316Z,19.28
2022-11-30T19:18:00.300Z,19.29
2022-11-30T19:20:28.181Z,19.30
2022-11-30T19:22:56.058Z,19.31
2022-11-30T19:25:23.923Z,19.32
2022-11-30T19:27:51.846Z,19.33
2022-11-30T19:30:21.407Z,19.32
2022-11-30T19:32:49.325Z,19.32
2022-11-30T19:35:17.302Z,19.33
2022-11-30T19:37:45.339Z,19.33
2022-11-30T19:40:14.145Z,19.33
2022-11-30T19:42:42.074Z,19.31
2022-11-30T19:45:10.792Z,19.31
2022-11-30T19:47:40.082Z,19.31
2022-11-30T19:50:08.738Z,19.30
2022-11-30T19:52:36.596Z,19.30
2022-11-30T19:55:04.778Z,19.30
2022-11-30T19:57:32.700Z,19.29
2022-11-30T20:00:00.618Z,19.30
2022-11-30T20:02:28.500Z,19.29
2022-11-30T20:04:57.788Z,19.30
2022-11-30T20:07:25.782Z,19.31
2022-11-30T20:09:53.676Z,19.30
2022-11-30T20:12:21.724Z,19.30
2022-11-30T20:14:50.827Z,19.30
2022-11-30T20:17:18.827Z,19.30
2022-11-30T20:19:46.717Z,19.30
2022-11-30T20:22:15.995Z,19.30
2022-11-30T20:24:43.886Z,19.30
2022-11-30T20:27:11.785Z,19.30
2022-11-30T20:29:39.744Z,19.31
2022-11-30T20:32:07.656Z,19.31
2022-11-30T20:34:40.995Z,19.28
2022-11-30T20:37:11.464Z,19.28
2022-11-30T20:39:45.808Z,19.29
2022-11-30T20:42:14.292Z,19.28
2022-11-30T20:44:42.171Z,19.30
2022-11-30T20:47:11.247Z,19.30
2022-11-30T20:49:39.183Z,19.30
2022-11-30T20:52:07.145Z,19.30
2022-11-30T20:54:35.033Z,19.30
2022-11-30T20:57:04.372Z,19.30
2022-11-30T20:59:32.310Z,19.32
2022-11-30T21:02:00.298Z,19.31
2022-11-30T21:04:28.344Z,19.30
2022-11-30T21:06:56.215Z,19.30
2022-11-30T21:09:24.163Z,19.29
2022-11-30T21:11:52.116Z,19.30
2022-11-30T21:14:21.779Z,19.29
2022-11-30T21:16:49.645Z,19.29
2022-11-30T21:19:17.839Z,19.29
2022-11-30T21:21:45.735Z,19.28
2022-11-30T21:24:13.682Z,19.29
2022-11-30T21:26:42.682Z,19.29
2022-11-30T21:29:11.911Z,19.30
2022-11-30T21:31:41.232Z,19.29
2022-11-30T21:34:09.194Z,19.28
2022-11-30T21:36:37.157Z,19.26
2022-11-30T21:39:07.074Z,19.25
2022-11-30T21:41:35.657Z,19.24
2022-11-30T21:44:03.601Z,19.24
2022-11-30T21:46:31.552Z,19.23
2022-11-30T21:49:00.947Z,19.23
2022-11-30T21:51:29.557Z,19.22
2022-11-30T21:53:58.165Z,19.21
2022-11-30T21:56:26.969Z,19.20
2022-11-30T21:58:54.850Z,19.19
2022-11-30T22:01:23.566Z,19.19
2022-11-30T22:03:53.910Z,19.19
2022-11-30T22:06:23.519Z,19.18
2022-11-30T22:08:51.415Z,19.20
2022-11-30T22:11:20.173Z,19.20
2022-11-30T22:13:51.796Z,19.19
2022-11-30T22:16:20.413Z,19.20
2022-11-30T22:18:48.442Z,19.20
2022-11-30T22:21:16.970Z,19.21
2022-11-30T22:23:46.697Z,19.20
2022-11-30T22:26:15.283Z,19.20
2022-11-30T22:28:43.795Z,19.18
2022-11-30T22:31:12.599Z,19.18
2022-11-30T22:33:40.924Z,19.19
2022-11-30T22:36:09.577Z,19.18
2022-11-30T22:38:37.462Z,19.18
2022-11-30T22:41:07.503Z,19.21
2022-11-30T22:43:35.555Z,19.23
2022-11-30T22:46:07.199Z,19.22
2022-11-30T22:48:35.178Z,19.22
2022-11-30T22:51:04.148Z,19.22
2022-11-30T22:53:32.070Z,19.21
2022-11-30T22:56:04.043Z,19.23
2022-11-30T22:58:33.377Z,19.24
2022-11-30T23:01:09.406Z,19.24
2022-11-30T23:03:37.448Z,19.22
2022-11-30T23:06:05.687Z,19.24
2022-11-30T23:08:33.581Z,19.26
2022-11-30T23:11:01.697Z,19.28
2022-11-30T23:13:29.663Z,19.28
2022-11-30T23:15:59.906Z,19.27
2022-11-30T23:18:28.730Z,19.27
2022-11-30T23:20:56.676Z,19.29
2022-11-30T23:23:24.625Z,19.31
2022-11-30T23:25:52.490Z,19.36
2022-11-30T23:28:20.668Z,19.37
2022-11-30T23:30:48.554Z,19.38
2022-11-30T23:33:17.843Z,19.39
2022-11-30T23:35:45.732Z,19.38
2022-11-30T23:38:13.868Z,19.36
2022-11-30T23:40:41.726Z,19.36
2022-11-30T23:43:09.595Z,19.35
2022-11-30T23:45:37.518Z,19.35
2022-11-30T23:48:05.572Z,19.35
2022-11-30T23:50:34.870Z,19.36
2022-11-30T23:53:02.752Z,19.36
2022-11-30T23:55:30.607Z,19.35
2022-11-30T23:57:58.519Z,19.33
